createdAt,value
2018-11-05T00:01:35.106Z,15.43
2018-11-05T00:06:19.138Z,15.53
2018-11-05T00:11:02.054Z,15.61
2018-11-05T00:15:45.243Z,15.65
2018-11-05T00:20:28.189Z,15.67
2018-11-05T00:25:13.899Z,15.47
2018-11-05T00:29:56.786Z,15.51
2018-11-05T00:34:40.780Z,15.79
2018-11-05T00:39:23.674Z,15.60
2018-11-05T00:44:07.027Z,15.62
2018-11-05T00:48:49.904Z,15.72
2018-11-05T00:53:32.819Z,15.45
2018-11-05T00:58:15.690Z,15.61
2018-11-05T01:02:59.609Z,15.52
2018-11-05T01:07:43.436Z,15.24
2018-11-05T01:12:27.455Z,15.31
2018-11-05T01:17:10.390Z,14.99
2018-11-05T01:21:55.600Z,15.15
2018-11-05T01:26:38.467Z,14.84
2018-11-05T01:31:21.382Z,14.93
2018-11-05T01:36:04.489Z,14.96
2018-11-05T01:40:47.385Z,15.16
2018-11-05T01:45:30.432Z,14.80
2018-11-05T01:50:15.010Z,15.00
2018-11-05T01:54:57.976Z,14.83
2018-11-05T01:59:40.836Z,14.64
2018-11-05T02:04:23.759Z,15.19
2018-11-05T02:09:08.070Z,14.95
2018-11-05T02:13:52.097Z,15.08
2018-11-05T02:18:34.992Z,14.76
2018-11-05T02:23:19.110Z,14.60
2018-11-05T02:28:01.959Z,14.83
2018-11-05T02:32:45.299Z,15.01
2018-11-05T02:37:28.208Z,14.58
2018-11-05T02:42:12.385Z,14.45
2018-11-05T02:46:55.297Z,14.59
2018-11-05T02:51:38.168Z,14.60
2018-11-05T02:56:21.043Z,14.65
2018-11-05T03:01:03.959Z,14.51
2018-11-05T03:05:47.102Z,14.60
2018-11-05T03:10:29.978Z,14.71
2018-11-05T03:15:14.324Z,14.52
2018-11-05T03:19:57.248Z,14.41
2018-11-05T03:24:41.238Z,14.52
2018-11-05T03:29:24.450Z,14.85
2018-11-05T03:34:07.496Z,14.84
2018-11-05T03:38:50.431Z,14.59
2018-11-05T03:43:33.483Z,14.73
2018-11-05T03:48:16.361Z,14.76
2018-11-05T03:53:00.271Z,14.78
2018-11-05T03:57:43.187Z,14.75
2018-11-05T04:02:26.341Z,14.28
2018-11-05T04:07:09.212Z,14.75
2018-11-05T04:11:53.134Z,14.42
2018-11-05T04:16:36.012Z,14.97
2018-11-05T04:21:26.963Z,14.39
2018-11-05T04:26:09.882Z,14.64
2018-11-05T04:30:52.794Z,14.55
2018-11-05T04:35:36.702Z,14.41
2018-11-05T04:40:19.593Z,14.32
2018-11-05T04:45:02.586Z,14.46
2018-11-05T04:49:45.478Z,14.36
2018-11-05T04:54:28.518Z,14.41
2018-11-05T04:59:11.429Z,14.34
2018-11-05T05:03:54.499Z,14.54
2018-11-05T05:08:37.417Z,14.50
2018-11-05T05:13:22.360Z,14.16
2018-11-05T05:18:05.426Z,14.18
2018-11-05T05:22:48.456Z,14.01
2018-11-05T05:27:31.267Z,14.30
2018-11-05T05:32:15.154Z,14.23
2018-11-05T05:36:58.056Z,14.09
2018-11-05T05:41:42.009Z,14.19
2018-11-05T05:46:24.873Z,14.15
2018-11-05T05:51:08.987Z,14.01
2018-11-05T05:55:51.868Z,13.90
2018-11-05T06:00:34.734Z,13.82
2018-11-05T06:05:17.662Z,14.24
2018-11-05T06:10:00.550Z,14.04
2018-11-05T06:14:43.779Z,14.42
2018-11-05T06:19:26.654Z,14.37
2018-11-05T06:24:09.674Z,14.60
2018-11-05T06:28:52.575Z,14.04
2018-11-05T06:33:35.727Z,14.19
2018-11-05T06:38:18.650Z,14.33
2018-11-05T06:43:02.789Z,14.43
2018-11-05T06:47:46.066Z,14.70
2018-11-05T06:52:30.043Z,14.66
2018-11-05T06:57:12.943Z,14.82
2018-11-05T07:01:56.907Z,14.63
2018-11-05T07:06:39.837Z,14.82
2018-11-05T07:11:22.947Z,15.03
2018-11-05T07:16:05.850Z,14.98
2018-11-05T07:20:49.915Z,14.99
2018-11-05T07:25:32.855Z,15.03
2018-11-05T07:30:18.414Z,15.12
2018-11-05T07:35:02.431Z,15.03
2018-11-05T07:39:45.304Z,15.25
2018-11-05T07:44:28.442Z,15.33
2018-11-05T07:49:11.348Z,15.74
2018-11-05T07:53:55.501Z,16.04
2018-11-05T07:58:38.388Z,16.45
2018-11-05T08:03:22.248Z,16.27
2018-11-05T08:08:06.080Z,16.28
2018-11-05T08:12:53.415Z,16.67
2018-11-05T08:17:36.274Z,16.69
2018-11-05T08:22:22.469Z,17.22
2018-11-05T08:27:06.268Z,17.18
2018-11-05T08:31:49.670Z,17.53
2018-11-05T08:36:33.110Z,17.69
2018-11-05T08:41:17.150Z,17.53
2018-11-05T08:46:00.066Z,17.85
2018-11-05T08:50:44.307Z,17.24
2018-11-05T08:55:27.756Z,17.02
2018-11-05T09:00:16.321Z,16.47
2018-11-05T09:04:59.212Z,17.74
2018-11-05T09:09:42.545Z,17.50
2018-11-05T09:14:25.455Z,18.23
2018-11-05T09:19:08.393Z,16.98
2018-11-05T09:23:52.239Z,17.20
2018-11-05T09:28:35.158Z,16.78
2018-11-05T09:33:19.039Z,17.77
2018-11-05T09:38:01.912Z,17.93
2018-11-05T09:42:48.912Z,18.01
2018-11-05T09:47:31.706Z,17.56
2018-11-05T09:52:15.717Z,18.64
2018-11-05T09:56:58.602Z,18.45
2018-11-05T10:01:43.498Z,19.51
2018-11-05T10:06:26.822Z,19.68
2018-11-05T10:11:10.829Z,18.95
2018-11-05T10:15:53.710Z,19.54
2018-11-05T10:20:39.921Z,19.88
2018-11-05T10:25:22.839Z,20.13
2018-11-05T10:30:10.973Z,19.93
2018-11-05T10:34:53.855Z,19.59
2018-11-05T10:39:36.745Z,19.76
2018-11-05T10:44:19.697Z,20.02
2018-11-05T10:49:02.611Z,20.02
2018-11-05T10:53:46.501Z,19.86
2018-11-05T10:58:29.424Z,19.88
2018-11-05T11:03:16.625Z,20.14
2018-11-05T11:08:00.440Z,19.54
2018-11-05T11:12:44.421Z,19.43
2018-11-05T11:17:27.290Z,19.61
2018-11-05T11:22:11.311Z,19.74
2018-11-05T11:26:54.196Z,19.72
2018-11-05T11:31:37.610Z,19.77
2018-11-05T11:36:20.558Z,19.37
2018-11-05T11:41:03.562Z,19.54
2018-11-05T11:45:46.448Z,19.86
2018-11-05T11:50:29.636Z,19.84
2018-11-05T11:55:14.393Z,19.13
2018-11-05T11:59:57.264Z,19.99
2018-11-05T12:04:41.167Z,19.60
2018-11-05T12:09:24.315Z,19.84
2018-11-05T12:14:07.570Z,19.85
2018-11-05T12:18:50.391Z,19.47
2018-11-05T12:23:34.346Z,19.45
2018-11-05T12:28:17.247Z,19.53
2018-11-05T12:33:03.347Z,19.47
2018-11-05T12:37:47.507Z,19.16
2018-11-05T12:42:33.581Z,19.17
2018-11-05T12:47:16.534Z,19.48
2018-11-05T12:52:01.611Z,19.08
2018-11-05T12:56:44.488Z,18.57
2018-11-05T13:01:31.900Z,18.49
2018-11-05T13:06:14.799Z,18.59
2018-11-05T13:10:58.761Z,18.63
2018-11-05T13:15:41.687Z,17.99
2018-11-05T13:20:24.906Z,18.37
2018-11-05T13:25:07.858Z,18.37
2018-11-05T13:29:54.534Z,18.21
2018-11-05T13:34:37.420Z,17.97
2018-11-05T13:39:20.291Z,18.10
2018-11-05T13:44:03.403Z,18.17
2018-11-05T13:48:47.050Z,18.03
2018-11-05T13:53:32.371Z,17.42
2018-11-05T13:58:15.288Z,17.58
2018-11-05T14:03:01.512Z,17.40
2018-11-05T14:07:44.480Z,17.31
2018-11-05T14:12:28.341Z,17.18
2018-11-05T14:17:11.222Z,17.12
2018-11-05T14:21:55.337Z,17.03
2018-11-05T14:26:38.212Z,16.45
2018-11-05T14:31:22.209Z,16.91
2018-11-05T14:36:05.158Z,17.18
2018-11-05T14:40:48.154Z,16.93
2018-11-05T14:45:31.860Z,17.20
2018-11-05T14:50:17.159Z,17.01
2018-11-05T14:55:00.046Z,17.08
2018-11-05T14:59:46.602Z,17.35
2018-11-05T15:04:29.482Z,17.35
2018-11-05T15:09:13.033Z,17.43
2018-11-05T15:13:55.993Z,17.30
2018-11-05T15:18:38.927Z,17.26
2018-11-05T15:23:22.766Z,17.03
2018-11-05T15:28:05.742Z,16.78
2018-11-05T15:32:49.924Z,16.64
2018-11-05T15:37:32.790Z,16.29
2018-11-05T15:42:16.919Z,16.76
2018-11-05T15:46:59.807Z,16.64
2018-11-05T15:51:44.891Z,16.66
2018-11-05T15:56:28.523Z,16.74
2018-11-05T16:01:15.274Z,16.66
2018-11-05T16:05:58.191Z,16.40
2018-11-05T16:10:41.107Z,16.60
2018-11-05T16:15:24.056Z,16.29
2018-11-05T16:20:11.115Z,16.29
2018-11-05T16:24:54.011Z,16.06
2018-11-05T16:29:37.012Z,15.95
2018-11-05T16:34:19.899Z,15.67
2018-11-05T16:39:04.211Z,16.04
2018-11-05T16:43:47.209Z,16.12
2018-11-05T16:48:31.439Z,15.49
2018-11-05T16:53:16.270Z,15.82
2018-11-05T16:57:59.257Z,15.74
2018-11-05T17:02:44.954Z,15.64
2018-11-05T17:07:27.737Z,15.86
2018-11-05T17:12:12.736Z,15.62
2018-11-05T17:16:55.687Z,15.19
2018-11-05T17:21:40.772Z,15.62
2018-11-05T17:26:23.765Z,15.24
2018-11-05T17:31:12.136Z,15.28
2018-11-05T17:35:55.061Z,15.33
2018-11-05T17:40:39.194Z,15.70
2018-11-05T17:45:22.237Z,15.35
2018-11-05T17:50:07.199Z,15.79
2018-11-05T17:54:50.135Z,15.34
2018-11-05T17:59:34.864Z,15.60
2018-11-05T18:04:17.762Z,15.60
2018-11-05T18:09:01.117Z,15.67
2018-11-05T18:13:44.328Z,15.42
2018-11-05T18:18:27.556Z,15.69
2018-11-05T18:23:14.824Z,15.32
2018-11-05T18:27:57.771Z,15.31
2018-11-05T18:32:42.743Z,15.26
2018-11-05T18:37:25.692Z,15.22
2018-11-05T18:42:11.458Z,15.39
2018-11-05T18:46:54.411Z,15.29
2018-11-05T18:51:38.604Z,14.98
2018-11-05T18:56:21.555Z,15.11
2018-11-05T19:01:05.260Z,15.20
2018-11-05T19:05:48.994Z,14.96
2018-11-05T19:10:32.850Z,14.90
2018-11-05T19:15:16.984Z,15.14
2018-11-05T19:20:01.051Z,14.87
2018-11-05T19:24:44.555Z,14.64
2018-11-05T19:29:28.520Z,14.60
2018-11-05T19:34:11.723Z,14.88
2018-11-05T19:38:54.789Z,14.88
2018-11-05T19:43:38.873Z,14.50
2018-11-05T19:48:21.777Z,14.91
2018-11-05T19:58:15.307Z,14.62
2018-11-05T20:03:00.623Z,14.56
2018-11-05T20:07:44.275Z,14.54
2018-11-05T20:12:28.283Z,14.88
2018-11-05T20:17:11.210Z,14.70
2018-11-05T20:21:54.284Z,14.33
2018-11-05T20:26:37.217Z,14.52
2018-11-05T20:31:20.565Z,14.50
2018-11-05T20:36:03.264Z,14.71
2018-11-05T20:40:46.427Z,14.51
2018-11-05T20:45:29.339Z,14.34
2018-11-05T20:50:14.310Z,14.42
2018-11-05T20:54:57.201Z,14.65
2018-11-05T20:59:43.492Z,14.73
2018-11-05T21:04:26.398Z,14.40
2018-11-05T21:09:11.661Z,14.22
2018-11-05T21:13:54.647Z,14.18
2018-11-05T21:18:37.536Z,14.29
2018-11-05T21:23:20.483Z,14.44
2018-11-05T21:28:03.394Z,14.64
2018-11-05T21:32:47.584Z,14.53
2018-11-05T21:37:30.424Z,14.19
2018-11-05T21:42:14.591Z,14.30
2018-11-05T21:46:57.486Z,14.82
2018-11-05T21:51:40.583Z,14.66
2018-11-05T21:56:23.461Z,14.85
2018-11-05T22:01:09.899Z,14.98
2018-11-05T22:05:54.858Z,14.84
2018-11-05T22:10:38.007Z,14.96
2018-11-05T22:15:20.982Z,15.00
2018-11-05T22:20:04.771Z,15.03
2018-11-05T22:24:47.647Z,14.99
2018-11-05T22:29:30.544Z,15.08
2018-11-05T22:35:43.629Z,15.11
2018-11-05T22:40:26.704Z,14.97
2018-11-05T22:45:10.997Z,15.09
2018-11-05T22:49:54.002Z,15.16
2018-11-05T22:54:36.922Z,15.18
2018-11-05T22:59:23.566Z,15.27
2018-11-05T23:04:06.498Z,15.13
2018-11-05T23:08:49.614Z,15.18
2018-11-05T23:13:32.466Z,15.27
2018-11-05T23:18:15.383Z,14.98
2018-11-05T23:22:58.286Z,15.08
2018-11-05T23:36:39.861Z,15.21
2018-11-05T23:41:22.878Z,15.12
2018-11-05T23:46:05.961Z,15.08
2018-11-05T23:50:52.766Z,15.24
2018-11-05T23:55:35.664Z,15.22
